Latest Weather Observations for Glen Innes Airport

IDN60801

Issued at 1:35 pm EST Friday 22 August 2014 (issued every 30 minutes, with the page automatically refreshed every 10 minutes)

About weather observations | Map of weather stations | Latest weather observations for NSW | Other Formats
Station Details ID: 056243 Name: GLEN INNES AIRPORT AWS Lat: -29.68 Lon: 151.69 Height: 1044.3 m
Data from the previous 72 hours. | See also: Recent months for locations in New South Wales
Date/Time
EST
Temp
°C
App
Temp
°C
Dew
Point
Rel
Hum
%
Delta-T
°C
Wind Press
QNH
hPa
Press
MSL
hPa
Rain
since 9 am
mm
Dir
 
Spd
km/h
Gust
km/h
Spd
kts
Gust
kts
22/01:30pm 11.8 5.5 5.9 67 2.9 ESE 28 35 15 19 1026.0 - 0.0
22/01:00pm 12.0 5.7 5.6 65 3.1 ESE 28 33 15 18 1026.6 - 0.0
22/12:30pm 10.9 4.5 5.2 68 2.8 E 28 37 15 20 1026.8 - 0.0
22/12:00pm 10.6 3.9 5.4 70 2.5 ESE 30 41 16 22 1027.5 1027.5 0.0
22/11:30am 9.8 3.0 5.0 72 2.3 E 30 39 16 21 1027.9 - 0.0
22/11:00am 9.7 3.0 5.5 75 2.0 ESE 30 39 16 21 1028.2 - 0.0
22/10:30am 9.8 3.1 7.2 84 1.3 ESE 32 41 17 22 1028.5 - 0.0
22/10:00am 9.3 2.3 6.2 81 1.5 E 32 39 17 21 1028.6 - 0.0
22/09:30am 9.0 2.1 7.3 89 0.9 ESE 33 41 18 22 1028.7 - 0.0
22/09:00am 8.3 0.8 6.1 86 1.1 E 35 43 19 23 1028.2 1028.3 0.6
22/08:30am 7.8 0.6 5.9 88 0.9 ESE 33 43 18 23 1028.0 - 0.6
22/08:00am 7.3 1.5 6.2 93 0.5 ESE 26 32 14 17 1027.9 - 0.6
22/07:30am 5.5 0.6 4.9 96 0.3 SE 20 28 11 15 1027.7 - 0.6
22/07:00am 4.6 0.0 3.9 95 0.3 ESE 17 20 9 11 1027.6 - 0.6
22/06:30am 4.6 -2.0 4.0 96 0.3 ESE 28 35 15 19 1026.8 - 0.6
22/06:00am 4.5 -2.2 3.8 95 0.3 ESE 28 35 15 19 1026.2 1026.2 0.6
22/05:30am 4.7 -2.3 4.0 95 0.3 ESE 30 37 16 20 1026.0 - 0.6
22/05:00am 4.3 -1.7 3.4 94 0.4 ESE 24 30 13 16 1025.9 - 0.6
22/04:30am 4.9 -1.7 4.0 94 0.4 ESE 28 33 15 18 1025.7 - 0.6
22/04:00am 4.7 -1.5 4.3 97 0.2 ESE 26 32 14 17 1025.6 - 0.6
22/03:30am 4.6 -1.6 4.3 98 0.1 ESE 26 30 14 16 1025.7 - 0.6
22/03:00am 4.7 -1.4 4.7 100 0.0 ESE 26 32 14 17 1025.8 1025.8 0.6
22/02:30am 4.5 -1.3 4.5 100 0.0 ESE 24 28 13 15 1026.0 - 0.6
22/02:00am 5.2 -0.5 4.9 98 0.1 ESE 24 32 13 17 1026.4 - 0.6
22/01:30am 5.5 -0.1 5.2 98 0.1 ESE 24 30 13 16 1026.7 - 0.6
22/01:00am 5.5 -0.2 5.1 97 0.2 ESE 24 30 13 16 1026.7 - 0.6
22/12:30am 6.2 0.3 5.6 96 0.3 E 26 32 14 17 1026.8 - 0.6
22/12:00am 6.2 0.3 5.8 97 0.2 E 26 33 14 18 1026.7 1026.7 0.6
 
Date/Time
EST
Temp
°C
App
Temp
°C
Dew
Point
Rel
Hum
%
Delta-T
°C
Wind Press
QNH
hPa
Press
MSL
hPa
Rain
since 9 am
mm
Dir
 
Spd
km/h
Gust
km/h
Spd
kts
Gust
kts
21/11:30pm 6.6 0.5 6.5 99 0.0 E 28 35 15 19 1026.8 - 0.4
21/11:00pm 6.6 0.5 6.5 99 0.0 E 28 35 15 19 1026.9 - 0.4
21/10:30pm 7.0 0.2 6.9 99 0.0 E 32 39 17 21 1027.0 - 0.4
21/10:00pm 7.1 - 7.2 - - ESE 19 26 10 14 1027.0 - 0.4
21/09:30pm 7.2 2.0 7.2 100 0.0 E 24 30 13 16 1026.9 - 0.4
21/09:00pm 7.6 2.1 7.5 99 0.0 E 26 35 14 19 1026.8 1026.8 0.2
21/08:30pm 7.6 2.4 7.3 98 0.1 ESE 24 30 13 16 1026.6 - 0.0
21/08:00pm 7.9 1.9 7.1 95 0.4 E 28 35 15 19 1026.1 - 0.0
21/07:30pm 8.4 2.8 7.2 92 0.6 E 26 35 14 19 1025.8 - 0.0
21/07:00pm 7.6 3.0 6.4 92 0.6 E 20 28 11 15 1025.5 - 0.0
21/06:30pm 7.8 2.9 5.1 83 1.3 E 20 26 11 14 1025.1 - 0.0
21/06:00pm 8.5 2.5 5.1 79 1.6 E 26 35 14 19 1024.6 1024.5 0.0
21/05:30pm 9.3 3.9 4.7 73 2.2 E 22 30 12 16 1024.4 - 0.0
21/05:00pm 10.3 4.6 4.7 68 2.7 E 24 32 13 17 1024.0 - 0.0
21/04:30pm 11.8 6.1 5.0 63 3.3 E 24 30 13 16 1023.6 - 0.0
21/04:00pm 11.4 6.0 4.6 63 3.3 E 22 26 12 14 1023.3 - 0.0
21/03:30pm 12.5 7.5 4.7 59 3.8 E 20 26 11 14 1023.3 - 0.0
21/03:00pm 14.1 8.5 5.5 56 4.3 E 24 32 13 17 1023.1 1023.1 0.0
21/02:30pm 12.8 7.9 5.0 59 3.8 E 20 30 11 16 1023.3 - 0.0
21/02:00pm 13.4 8.0 4.6 55 4.3 E 22 30 12 16 1023.4 - 0.0
21/01:30pm 13.3 8.4 5.0 57 4.1 E 20 28 11 15 1023.6 - 0.0
21/01:00pm 13.4 8.5 4.0 53 4.5 ENE 19 30 10 16 1023.9 - 0.0
21/12:30pm 13.9 9.3 5.8 58 4.1 ESE 19 32 10 17 1024.1 - 0.0
21/12:00pm 12.9 7.5 4.3 56 4.1 ESE 22 30 12 16 1024.6 1024.5 0.0
21/11:30am 12.5 7.2 5.2 61 3.6 ESE 22 32 12 17 1025.0 - 0.0
21/11:00am 12.6 7.0 5.5 62 3.5 ESE 24 32 13 17 1025.4 - 0.0
21/10:30am 11.2 5.1 4.7 64 3.1 ESE 26 32 14 17 1025.6 - 0.0
21/10:00am 10.3 4.2 4.7 68 2.7 ESE 26 35 14 19 1025.8 - 0.0
21/09:30am 9.6 3.2 5.2 74 2.1 ESE 28 35 15 19 1025.8 - 0.0
21/09:00am 8.7 3.0 5.1 78 1.7 ESE 24 33 13 18 1025.8 1025.8 0.0
21/08:30am 7.6 2.1 6.1 90 0.7 SE 24 30 13 16 1025.7 - 0.0
21/08:00am 6.1 0.3 4.3 88 0.8 SE 24 30 13 16 1025.6 - 0.0
21/07:30am 5.0 -0.1 4.1 94 0.4 SE 20 28 11 15 1025.2 - 0.0
21/07:00am 4.0 -1.2 3.3 95 0.3 SE 20 24 11 13 1025.0 - 0.0
21/06:30am 3.5 -1.2 2.9 96 0.3 SE 17 20 9 11 1024.8 - 0.0
21/06:00am 3.4 -1.4 2.8 96 0.3 SE 17 20 9 11 1024.4 1024.3 0.0
21/05:30am 3.8 -1.5 2.9 94 0.4 SE 20 24 11 13 1024.1 - 0.0
21/05:00am 4.0 -1.1 3.1 94 0.4 SE 19 24 10 13 1024.0 - 0.0
21/04:30am 3.7 -1.4 2.8 94 0.4 SE 19 22 10 12 1023.9 - 0.0
21/04:00am 3.6 -1.6 2.7 94 0.4 SE 19 22 10 12 1023.8 - 0.0
21/03:30am 3.9 -1.2 3.0 94 0.4 SE 19 22 10 12 1023.8 - 0.0
21/03:00am 3.7 -1.1 2.8 94 0.4 SE 17 19 9 10 1023.7 1023.6 0.0
21/02:30am 3.9 -0.5 2.6 91 0.6 SE 15 19 8 10 1023.6 - 0.0
21/02:00am 4.9 -0.2 2.9 87 0.9 SE 19 24 10 13 1023.7 - 0.0
21/01:30am 5.0 0.5 4.1 94 0.4 SE 17 20 9 11 1023.8 - 0.0
21/01:00am 5.3 0.9 4.6 95 0.3 SE 17 20 9 11 1024.0 - 0.0
21/12:30am 5.6 0.9 5.0 96 0.3 ESE 19 22 10 12 1024.0 - 0.0
21/12:00am 6.1 1.5 5.4 95 0.3 ESE 19 22 10 12 1023.8 1023.7 0.0
 
Date/Time
EST
Temp
°C
App
Temp
°C
Dew
Point
Rel
Hum
%
Delta-T
°C
Wind Press
QNH
hPa
Press
MSL
hPa
Rain
since 9 am
mm
Dir
 
Spd
km/h
Gust
km/h
Spd
kts
Gust
kts
20/11:30pm 6.7 3.0 6.3 97 0.2 SE 15 20 8 11 1023.8 - 0.0
20/11:00pm 6.7 3.0 6.1 96 0.3 ESE 15 17 8 9 1024.0 - 0.0
20/10:30pm 6.6 2.5 6.3 98 0.1 ESE 17 19 9 10 1023.9 - 0.0
20/10:00pm 6.6 2.1 6.2 97 0.2 ESE 19 20 10 11 1023.8 - 0.0
20/09:30pm 6.5 2.4 6.2 98 0.1 ESE 17 20 9 11 1023.8 - 0.0
20/09:00pm 6.6 2.4 5.7 94 0.4 ESE 17 22 9 12 1023.8 1023.7 0.0
20/08:30pm 7.7 3.1 6.6 93 0.5 E 20 26 11 14 1023.6 - 0.0
20/08:00pm 5.8 1.8 5.1 95 0.3 ESE 15 17 8 9 1023.4 - 0.0
20/07:30pm 6.2 2.8 4.0 86 1.0 E 11 13 6 7 1022.9 - 0.0
20/07:00pm 8.1 5.3 5.0 81 1.5 ENE 9 11 5 6 1022.7 - 0.0
20/06:30pm 9.2 4.6 5.6 78 1.7 E 19 26 10 14 1022.3 - 0.0
20/06:00pm 9.7 3.7 5.5 75 2.0 E 26 33 14 18 1021.8 1021.7 0.0
20/05:30pm 11.0 5.0 5.1 67 2.9 E 26 35 14 19 1021.3 - 0.0
20/05:00pm 12.7 8.1 3.6 54 4.3 ESE 17 20 9 11 1020.8 - 0.0
20/04:30pm 14.4 11.3 3.5 48 5.2 ENE 9 19 5 10 1020.5 - 0.0
20/04:00pm 14.4 10.7 2.3 44 5.7 E 11 15 6 8 1020.3 - 0.0
20/03:30pm 14.4 10.8 3.2 47 5.4 ESE 11 17 6 9 1020.2 - 0.0
20/03:00pm 14.3 11.9 1.9 43 5.7 S 4 11 2 6 1020.0 1019.9 0.0
20/02:30pm 14.0 10.3 2.3 45 5.5 SSE 11 15 6 8 1020.0 - 0.0
20/02:00pm 13.3 11.0 2.5 48 5.0 SSE 4 11 2 6 1020.3 - 0.0
20/01:30pm 14.0 10.9 3.5 49 5.0 ESE 9 17 5 9 1020.5 - 0.0
20/01:00pm 12.9 10.3 4.1 55 4.2 SSE 7 17 4 9 1020.7 - 0.0
20/12:30pm 12.2 8.4 3.9 57 4.0 S 13 20 7 11 1021.2 - 0.0
20/12:00pm 11.8 8.0 4.1 59 3.7 SE 13 20 7 11 1021.5 1021.4 0.0
20/11:30am 12.2 7.9 5.4 63 3.3 SE 17 24 9 13 1021.7 - 0.0
20/11:00am 12.3 7.9 6.4 67 3.0 SE 19 26 10 14 1021.9 - 0.0
20/10:30am 11.5 6.6 5.2 65 3.1 SE 20 26 11 14 1022.0 - 0.0
20/10:00am 10.9 6.0 5.0 67 2.9 ESE 20 28 11 15 1022.3 - 0.0
20/09:30am 9.9 5.0 4.9 71 2.4 SE 20 28 11 15 1021.9 - 0.0
20/09:00am 9.1 3.0 4.9 75 2.0 ESE 26 33 14 18 1021.7 1021.6 1.2
20/08:30am 8.1 1.2 4.5 78 1.7 SE 30 37 16 20 1021.5 - 1.2
20/08:00am 7.6 1.0 4.2 79 1.6 SE 28 35 15 19 1021.2 - 1.2
20/07:30am 6.9 2.1 4.6 85 1.1 ESE 19 22 10 12 1020.9 - 1.2
20/07:00am 6.1 0.2 3.8 85 1.0 ESE 24 30 13 16 1020.4 - 1.2
20/06:30am 5.4 -0.5 3.7 89 0.8 SE 24 30 13 16 1020.0 - 1.2
20/06:00am 5.4 -0.5 3.7 89 0.8 SE 24 32 13 17 1019.8 1019.7 1.2
20/05:30am 4.6 0.0 3.9 95 0.3 SE 17 28 9 15 1019.6 - 1.2
20/05:00am 3.6 -0.8 2.6 93 0.4 ESE 15 19 8 10 1019.6 - 1.2
20/04:30am 2.1 -1.7 1.7 97 0.2 E 11 13 6 7 1019.3 - 1.2
20/04:00am 2.9 -0.5 1.9 93 0.4 ESE 9 11 5 6 1019.0 - 1.2
20/03:30am 3.5 -1.2 3.2 98 0.1 SE 17 17 9 9 1018.6 - 1.2
20/03:00am 3.0 -0.8 1.5 90 0.6 SE 11 13 6 7 1018.3 1018.1 1.2
20/02:30am 3.8 0.1 2.3 90 0.6 ESE 11 15 6 8 1018.4 - 1.2
20/02:00am 3.8 -0.3 2.2 89 0.7 SSE 13 15 7 8 1018.2 - 1.2
20/01:30am 5.8 1.2 3.6 86 1.0 SSE 17 20 9 11 1018.3 - 1.2
20/01:00am 6.3 2.2 4.3 87 0.9 SSE 15 20 8 11 1018.4 - 1.2
20/12:30am 6.2 2.0 4.0 86 1.0 SSE 15 20 8 11 1018.5 - 1.2
20/12:00am 5.9 2.1 3.9 87 0.9 SSE 13 17 7 9 1018.4 1018.2 1.2
 
Date/Time
EST
Temp
°C
App
Temp
°C
Dew
Point
Rel
Hum
%
Delta-T
°C
Wind Press
QNH
hPa
Press
MSL
hPa
Rain
since 9 am
mm
Dir
 
Spd
km/h
Gust
km/h
Spd
kts
Gust
kts
19/11:30pm 5.9 1.4 4.1 88 0.8 S 17 20 9 11 1018.5 - 1.2
19/11:16pm 6.4 -0.5 4.7 89 0.8 SSE 30 35 16 19 1018.6 - 1.2
19/11:00pm 4.6 1.5 3.6 93 0.4 SSE 9 13 5 7 1018.5 - 1.2
19/10:30pm 5.1 2.1 4.2 94 0.4 SSE 9 13 5 7 1018.5 - 1.2
19/10:00pm 4.2 1.3 2.7 90 0.6 S 7 9 4 5 1018.5 - 1.2
19/09:30pm 5.0 - 5.3 - - SSW 7 9 4 5 1018.4 - 1.2
19/09:00pm 5.3 2.5 5.0 98 0.1 SW 9 13 5 7 1018.3 1018.1 1.2
19/08:30pm 6.8 - 6.9 - - SSW 7 11 4 6 1018.3 - 1.2
19/08:00pm 6.6 - 6.7 - - WSW 11 15 6 8 1018.4 - 1.2
19/07:30pm 6.5 3.2 6.4 99 0.0 SW 13 15 7 8 1018.2 - 1.2
19/07:00pm 6.4 - 6.5 - - SW 15 19 8 10 1017.7 - 1.2
19/06:30pm 6.0 3.4 5.9 99 0.0 SW 9 13 5 7 1017.4 - 1.2
19/06:00pm 6.8 3.2 6.8 100 0.0 WSW 15 19 8 10 1017.1 1016.8 1.2
19/05:30pm 7.4 4.7 7.3 99 0.0 WSW 11 13 6 7 1016.7 - 1.2
19/05:00pm 7.6 4.6 7.6 100 0.0 WSW 13 17 7 9 1016.2 - 1.0
19/04:30pm 7.9 4.5 7.8 99 0.1 WSW 15 20 8 11 1016.0 - 0.4
19/04:00pm 8.2 4.1 7.9 98 0.2 WSW 19 26 10 14 1015.7 - 0.0
19/03:30pm 8.6 4.6 8.3 98 0.2 WSW 19 24 10 13 1015.3 - 0.0
19/03:00pm 8.9 4.3 8.1 95 0.4 WSW 22 26 12 14 1015.0 1014.7 0.0
19/02:30pm 9.2 5.7 8.6 96 0.3 W 17 22 9 12 1014.6 - 0.0
19/02:00pm 9.3 5.3 8.4 94 0.5 WSW 19 24 10 13 1014.6 - 0.0

Other Formats:

Comma delimited format used in spreadsheet applications
http://www.bom.gov.au/fwo/IDN60801/IDN60801.94588.axf

JavaScript Object Notation format (JSON) in row-major order
http://www.bom.gov.au/fwo/IDN60801/IDN60801.94588.json